Nieuwenhoorn, Netherlands
Current Conditions -  °F | °C
As of 11:55 PM on Saturday 25 Oct 2014 (Local Time) from EHRD Reporting Station
Overcast Overcast  
Wind Chill: 52°   Ceiling: 4200
Heat Index: 52°   Visibility: 6mi
Dew Point: 48°   Wind: 7mph
Humidity: 88%   Direction: 180°S
Pressure: 30.15"   Gusts: NA
Location:  51.85°N, 4.14°E
Report Text: EHRD 252155Z AUTO 18006KT 9999 FEW029 OVC042 11/09 Q1021 NOSIG
Loading
Personal Weather Stations






























Interactive Weather Map
Tropical Storm Tracking
New forecast layout! Learn more

10-Day Weather Forecast

Advertisements
Track Severe Weather on mobile